sensor_id;sensor_type;location;lat;lon;timestamp;pressure;altitude;pressure_sealevel;temperature;humidity
69593;BME280;56796;50.122;14.468;2022-12-20T00:16:13;989.48;;;-1.65;100
69593;BME280;56796;50.122;14.468;2022-12-20T00:35:40;989.42;;;-1.85;100
69593;BME280;56796;50.122;14.468;2022-12-20T00:55:01;989.25;;;-1.86;100
69593;BME280;56796;50.122;14.468;2022-12-20T01:14:28;989.26;;;-1.88;100
69593;BME280;56796;50.122;14.468;2022-12-20T01:33:55;989.11;;;-1.89;100
69593;BME280;56796;50.122;14.468;2022-12-20T01:53:20;988.89;;;-1.94;100
69593;BME280;56796;50.122;14.468;2022-12-20T02:12:44;989.06;;;-2.09;100
69593;BME280;56796;50.122;14.468;2022-12-20T02:32:11;988.69;;;-2.01;100
69593;BME280;56796;50.122;14.468;2022-12-20T02:51:37;988.81;;;-2.33;100
69593;BME280;56796;50.122;14.468;2022-12-20T03:11:03;988.63;;;-2.29;100
69593;BME280;56796;50.122;14.468;2022-12-20T03:30:30;988.58;;;-2.24;100
69593;BME280;56796;50.122;14.468;2022-12-20T03:49:49;988.66;;;-2.36;100
69593;BME280;56796;50.122;14.468;2022-12-20T04:09:18;988.51;;;-2.35;100
69593;BME280;56796;50.122;14.468;2022-12-20T04:28:33;988.7;;;-2.2;100
69593;BME280;56796;50.122;14.468;2022-12-20T04:48:01;988.6;;;-2.22;99.67
69593;BME280;56796;50.122;14.468;2022-12-20T05:07:26;988.62;;;-2.52;100
69593;BME280;56796;50.122;14.468;2022-12-20T05:26:50;988.43;;;-2.27;99.9
69593;BME280;56796;50.122;14.468;2022-12-20T05:46:18;988.06;;;-2.33;99.66
69593;BME280;56796;50.122;14.468;2022-12-20T06:05:41;988.37;;;-2.08;99.55
69593;BME280;56796;50.122;14.468;2022-12-20T06:25:07;988.21;;;-2.43;100
69593;BME280;56796;50.122;14.468;2022-12-20T06:44:35;987.82;;;-2.19;100
69593;BME280;56796;50.122;14.468;2022-12-20T07:03:59;988.41;;;-2.04;100
69593;BME280;56796;50.122;14.468;2022-12-20T07:23:25;986.7;;;-1.97;100
69593;BME280;56796;50.122;14.468;2022-12-20T07:42:54;988.42;;;-1.54;99.07
69593;BME280;56796;50.122;14.468;2022-12-20T08:02:21;987.78;;;-1.4;99.13
69593;BME280;56796;50.122;14.468;2022-12-20T08:21:45;987.95;;;-1.26;98.48
69593;BME280;56796;50.122;14.468;2022-12-20T08:41:13;987.51;;;-0.44;94.84
69593;BME280;56796;50.122;14.468;2022-12-20T09:00:40;987.46;;;0.08;92.85
69593;BME280;56796;50.122;14.468;2022-12-20T09:20:07;987.7;;;0.37;91.3
69593;BME280;56796;50.122;14.468;2022-12-20T09:39:33;987.54;;;0.95;90.34
69593;BME280;56796;50.122;14.468;2022-12-20T09:58:59;987.31;;;0.65;90.7
69593;BME280;56796;50.122;14.468;2022-12-20T10:18:32;987.26;;;1.78;87.68
69593;BME280;56796;50.122;14.468;2022-12-20T10:37:58;986.79;;;3.62;81.62
69593;BME280;56796;50.122;14.468;2022-12-20T10:57:23;986.87;;;1.38;85.19
69593;BME280;56796;50.122;14.468;2022-12-20T11:16:38;986.75;;;1.03;86.27
69593;BME280;56796;50.122;14.468;2022-12-20T11:36:05;986.52;;;1.08;87.43
69593;BME280;56796;50.122;14.468;2022-12-20T11:55:25;986.31;;;0.8;87.39
69593;BME280;56796;50.122;14.468;2022-12-20T12:14:52;985.72;;;0.88;87.31
69593;BME280;56796;50.122;14.468;2022-12-20T12:34:16;985.76;;;0.58;88.18
69593;BME280;56796;50.122;14.468;2022-12-20T12:53:40;985.46;;;0.5;88.81
69593;BME280;56796;50.122;14.468;2022-12-20T14:11:21;985.45;;;0.28;89.57
69593;BME280;56796;50.122;14.468;2022-12-20T14:30:45;985.26;;;0.16;90.49
69593;BME280;56796;50.122;14.468;2022-12-20T14:50:16;984.97;;;-0.02;91.31
69593;BME280;56796;50.122;14.468;2022-12-20T15:09:28;984.77;;;-0.29;93.59
69593;BME280;56796;50.122;14.468;2022-12-20T15:28:57;984.63;;;-0.33;94.3
69593;BME280;56796;50.122;14.468;2022-12-20T15:48:18;984.89;;;-0.4;94.92
69593;BME280;56796;50.122;14.468;2022-12-20T16:07:45;984.69;;;-0.37;95.37
69593;BME280;56796;50.122;14.468;2022-12-20T16:27:10;984.74;;;-0.4;95.78
69593;BME280;56796;50.122;14.468;2022-12-20T16:46:34;984.4;;;-0.41;96.4
69593;BME280;56796;50.122;14.468;2022-12-20T17:05:59;984.44;;;-0.38;96.38
69593;BME280;56796;50.122;14.468;2022-12-20T17:25:26;984.4;;;-0.43;97.05
69593;BME280;56796;50.122;14.468;2022-12-20T17:44:53;984.48;;;-0.31;97.15
69593;BME280;56796;50.122;14.468;2022-12-20T18:04:18;984.2;;;-0.25;97.31
69593;BME280;56796;50.122;14.468;2022-12-20T18:23:42;984.03;;;-0.27;97.75
69593;BME280;56796;50.122;14.468;2022-12-20T18:43:08;983.7;;;-0.3;98.55
69593;BME280;56796;50.122;14.468;2022-12-20T19:02:34;983.8;;;-0.5;100
69593;BME280;56796;50.122;14.468;2022-12-20T19:22:02;983.95;;;-0.74;100
69593;BME280;56796;50.122;14.468;2022-12-20T19:41:12;983.54;;;-0.7;100
69593;BME280;56796;50.122;14.468;2022-12-20T20:00:26;983.39;;;-0.75;100
69593;BME280;56796;50.122;14.468;2022-12-20T20:19:43;983.06;;;-0.73;100
69593;BME280;56796;50.122;14.468;2022-12-20T20:38:55;983.38;;;-0.61;99.88
69593;BME280;56796;50.122;14.468;2022-12-20T20:58:23;983.07;;;-0.61;99.18
69593;BME280;56796;50.122;14.468;2022-12-20T21:17:42;983.15;;;-0.62;99.29
69593;BME280;56796;50.122;14.468;2022-12-20T21:37:05;982.81;;;-0.88;99.72
69593;BME280;56796;50.122;14.468;2022-12-20T21:56:31;982.87;;;-0.94;99.79
69593;BME280;56796;50.122;14.468;2022-12-20T22:15:58;982.07;;;-1.12;100
69593;BME280;56796;50.122;14.468;2022-12-20T22:35:21;982.22;;;-1.25;100
69593;BME280;56796;50.122;14.468;2022-12-20T22:54:47;982.46;;;-1.25;100
69593;BME280;56796;50.122;14.468;2022-12-20T23:14:13;981.96;;;-1.16;100
69593;BME280;56796;50.122;14.468;2022-12-20T23:33:39;982.04;;;-0.95;100
69593;BME280;56796;50.122;14.468;2022-12-20T23:53:06;982.36;;;-0.98;100
